sensor_id;sensor_type;location;lat;lon;timestamp;pressure;altitude;pressure_sealevel;temperature;humidity
40992;BME280;29633;49.168;9.848;2023-04-12T00:02:07;96337.84;;;12.77;54.95
40992;BME280;29633;49.168;9.848;2023-04-12T00:04:33;96333.03;;;12.82;54.89
40992;BME280;29633;49.168;9.848;2023-04-12T00:07:00;96332.09;;;12.83;54.71
40992;BME280;29633;49.168;9.848;2023-04-12T00:09:30;96329.47;;;12.83;54.89
40992;BME280;29633;49.168;9.848;2023-04-12T00:11:59;96330.13;;;12.86;55.09
40992;BME280;29633;49.168;9.848;2023-04-12T00:14:26;96323.03;;;12.88;54.92
40992;BME280;29633;49.168;9.848;2023-04-12T00:16:51;96321.22;;;12.88;55.12
40992;BME280;29633;49.168;9.848;2023-04-12T00:19:17;96317.50;;;12.91;54.93
40992;BME280;29633;49.168;9.848;2023-04-12T00:21:43;96312.16;;;12.92;55.09
40992;BME280;29633;49.168;9.848;2023-04-12T00:24:09;96314.63;;;12.94;55.02
40992;BME280;29633;49.168;9.848;2023-04-12T00:26:34;96312.00;;;12.94;54.94
40992;BME280;29633;49.168;9.848;2023-04-12T00:29:00;96304.03;;;12.95;55.14
40992;BME280;29633;49.168;9.848;2023-04-12T00:31:26;96307.47;;;12.96;54.96
40992;BME280;29633;49.168;9.848;2023-04-12T00:33:52;96307.63;;;12.94;55.13
40992;BME280;29633;49.168;9.848;2023-04-12T00:36:17;96293.81;;;12.94;55.14
40992;BME280;29633;49.168;9.848;2023-04-12T00:38:43;96299.81;;;12.94;55.22
40992;BME280;29633;49.168;9.848;2023-04-12T00:41:13;96296.53;;;12.92;55.22
40992;BME280;29633;49.168;9.848;2023-04-12T00:43:39;96292.75;;;12.87;55.15
40992;BME280;29633;49.168;9.848;2023-04-12T00:46:06;96294.69;;;12.84;55.23
40992;BME280;29633;49.168;9.848;2023-04-12T00:48:31;96292.03;;;12.76;55.19
40992;BME280;29633;49.168;9.848;2023-04-12T00:50:58;96293.59;;;12.69;55.13
40992;BME280;29633;49.168;9.848;2023-04-12T00:53:25;96289.63;;;12.65;54.97
40992;BME280;29633;49.168;9.848;2023-04-12T00:55:51;96293.63;;;12.60;55.29
40992;BME280;29633;49.168;9.848;2023-04-12T00:58:18;96277.81;;;12.53;55.34
40992;BME280;29633;49.168;9.848;2023-04-12T01:00:43;96286.84;;;12.49;55.17
40992;BME280;29633;49.168;9.848;2023-04-12T01:03:16;96281.00;;;12.47;55.29
40992;BME280;29633;49.168;9.848;2023-04-12T01:06:11;96284.69;;;12.45;55.28
40992;BME280;29633;49.168;9.848;2023-04-12T01:11:22;96281.44;;;12.43;55.14
40992;BME280;29633;49.168;9.848;2023-04-12T01:16:31;96278.97;;;12.41;55.20
40992;BME280;29633;49.168;9.848;2023-04-12T01:19:05;96271.84;;;12.43;55.23
40992;BME280;29633;49.168;9.848;2023-04-12T01:27:54;96267.72;;;12.50;55.12
40992;BME280;29633;49.168;9.848;2023-04-12T01:30:21;96272.75;;;12.52;55.27
40992;BME280;29633;49.168;9.848;2023-04-12T01:32:49;96263.69;;;12.56;55.15
40992;BME280;29633;49.168;9.848;2023-04-12T01:35:17;96266.81;;;12.59;55.17
40992;BME280;29633;49.168;9.848;2023-04-12T01:37:43;96262.94;;;12.63;55.21
40992;BME280;29633;49.168;9.848;2023-04-12T01:40:10;96253.06;;;12.67;55.28
40992;BME280;29633;49.168;9.848;2023-04-12T01:42:36;96255.22;;;12.71;55.11
40992;BME280;29633;49.168;9.848;2023-04-12T01:45:02;96256.88;;;12.72;55.30
40992;BME280;29633;49.168;9.848;2023-04-12T01:47:28;96261.09;;;12.73;55.50
40992;BME280;29633;49.168;9.848;2023-04-12T01:50:15;96253.28;;;12.73;55.38
40992;BME280;29633;49.168;9.848;2023-04-12T01:53:02;96234.03;;;12.66;55.55
40992;BME280;29633;49.168;9.848;2023-04-12T01:55:29;96240.53;;;12.62;55.63
40992;BME280;29633;49.168;9.848;2023-04-12T01:57:56;96246.31;;;12.56;55.47
40992;BME280;29633;49.168;9.848;2023-04-12T02:00:22;96237.03;;;12.54;55.80
40992;BME280;29633;49.168;9.848;2023-04-12T02:02:48;96239.75;;;12.52;55.58
40992;BME280;29633;49.168;9.848;2023-04-12T02:05:14;96233.75;;;12.52;55.87
40992;BME280;29633;49.168;9.848;2023-04-12T02:07:40;96228.72;;;12.50;55.92
40992;BME280;29633;49.168;9.848;2023-04-12T02:10:06;96229.84;;;12.48;55.66
40992;BME280;29633;49.168;9.848;2023-04-12T02:12:32;96227.06;;;12.49;55.74
40992;BME280;29633;49.168;9.848;2023-04-12T02:14:57;96229.84;;;12.48;55.78
40992;BME280;29633;49.168;9.848;2023-04-12T02:17:24;96221.50;;;12.44;55.85
40992;BME280;29633;49.168;9.848;2023-04-12T02:19:50;96217.63;;;12.48;55.80
40992;BME280;29633;49.168;9.848;2023-04-12T02:22:18;96209.81;;;12.48;55.87
40992;BME280;29633;49.168;9.848;2023-04-12T02:24:44;96211.47;;;12.49;55.85
40992;BME280;29633;49.168;9.848;2023-04-12T02:27:10;96203.31;;;12.44;55.93
40992;BME280;29633;49.168;9.848;2023-04-12T02:29:35;96201.81;;;12.42;55.96
40992;BME280;29633;49.168;9.848;2023-04-12T02:32:01;96196.91;;;12.39;56.07
40992;BME280;29633;49.168;9.848;2023-04-12T02:34:27;96196.38;;;12.35;56.18
40992;BME280;29633;49.168;9.848;2023-04-12T02:36:55;96191.50;;;12.32;56.18
40992;BME280;29633;49.168;9.848;2023-04-12T02:39:21;96191.63;;;12.30;56.31
40992;BME280;29633;49.168;9.848;2023-04-12T02:41:47;96183.31;;;12.27;56.00
40992;BME280;29633;49.168;9.848;2023-04-12T02:44:13;96186.06;;;12.25;56.21
40992;BME280;29633;49.168;9.848;2023-04-12T02:46:39;96176.78;;;12.23;56.20
40992;BME280;29633;49.168;9.848;2023-04-12T02:49:04;96183.09;;;12.20;56.42
40992;BME280;29633;49.168;9.848;2023-04-12T02:51:30;96175.59;;;12.17;56.19
40992;BME280;29633;49.168;9.848;2023-04-12T02:53:56;96167.28;;;12.14;56.44
40992;BME280;29633;49.168;9.848;2023-04-12T02:56:21;96164.28;;;12.09;56.32
40992;BME280;29633;49.168;9.848;2023-04-12T02:58:49;96162.69;;;12.08;56.37
40992;BME280;29633;49.168;9.848;2023-04-12T03:01:14;96157.41;;;12.00;56.42
40992;BME280;29633;49.168;9.848;2023-04-12T03:03:41;96156.72;;;11.98;56.53
40992;BME280;29633;49.168;9.848;2023-04-12T03:06:07;96158.00;;;11.94;56.72
40992;BME280;29633;49.168;9.848;2023-04-12T03:08:33;96148.84;;;11.90;56.61
40992;BME280;29633;49.168;9.848;2023-04-12T03:11:00;96140.25;;;11.89;56.84
40992;BME280;29633;49.168;9.848;2023-04-12T03:13:26;96136.81;;;11.89;56.85
40992;BME280;29633;49.168;9.848;2023-04-12T03:15:54;96134.53;;;11.86;56.88
40992;BME280;29633;49.168;9.848;2023-04-12T03:18:21;96136.59;;;11.82;56.86
40992;BME280;29633;49.168;9.848;2023-04-12T03:20:48;96125.69;;;11.78;56.99
40992;BME280;29633;49.168;9.848;2023-04-12T03:23:14;96125.28;;;11.73;56.78
40992;BME280;29633;49.168;9.848;2023-04-12T03:25:40;96122.28;;;11.68;57.08
40992;BME280;29633;49.168;9.848;2023-04-12T03:28:06;96126.69;;;11.68;57.28
40992;BME280;29633;49.168;9.848;2023-04-12T03:30:34;96118.72;;;11.69;57.12
40992;BME280;29633;49.168;9.848;2023-04-12T03:33:00;96116.03;;;11.71;57.07
40992;BME280;29633;49.168;9.848;2023-04-12T03:35:26;96104.69;;;11.72;57.14
40992;BME280;29633;49.168;9.848;2023-04-12T03:37:51;96111.66;;;11.71;57.29
40992;BME280;29633;49.168;9.848;2023-04-12T03:40:17;96110.94;;;11.69;57.18
40992;BME280;29633;49.168;9.848;2023-04-12T03:42:42;96107.69;;;11.67;57.43
40992;BME280;29633;49.168;9.848;2023-04-12T03:45:08;96099.22;;;11.65;57.17
40992;BME280;29633;49.168;9.848;2023-04-12T03:47:34;96092.53;;;11.63;57.37
40992;BME280;29633;49.168;9.848;2023-04-12T03:50:04;96085.47;;;11.55;57.52
40992;BME280;29633;49.168;9.848;2023-04-12T03:52:34;96085.63;;;11.54;57.37
40992;BME280;29633;49.168;9.848;2023-04-12T03:55:00;96078.50;;;11.56;57.35
40992;BME280;29633;49.168;9.848;2023-04-12T03:57:26;96074.13;;;11.56;57.52
40992;BME280;29633;49.168;9.848;2023-04-12T03:59:51;96072.19;;;11.58;57.46
40992;BME280;29633;49.168;9.848;2023-04-12T04:02:17;96064.81;;;11.63;57.29
40992;BME280;29633;49.168;9.848;2023-04-12T04:04:43;96062.56;;;11.68;57.55
40992;BME280;29633;49.168;9.848;2023-04-12T04:07:09;96057.66;;;11.75;57.78
40992;BME280;29633;49.168;9.848;2023-04-12T04:09:35;96052.81;;;11.80;57.56
40992;BME280;29633;49.168;9.848;2023-04-12T04:12:01;96059.22;;;11.86;57.62
40992;BME280;29633;49.168;9.848;2023-04-12T04:14:26;96047.69;;;11.88;57.50
40992;BME280;29633;49.168;9.848;2023-04-12T04:16:52;96035.09;;;11.93;57.63
40992;BME280;29633;49.168;9.848;2023-04-12T04:19:19;96029.72;;;11.95;57.77
40992;BME280;29633;49.168;9.848;2023-04-12T04:21:45;96024.25;;;11.98;57.74
40992;BME280;29633;49.168;9.848;2023-04-12T04:24:11;96024.09;;;11.99;57.72
40992;BME280;29633;49.168;9.848;2023-04-12T04:26:38;96015.19;;;12.02;57.73
40992;BME280;29633;49.168;9.848;2023-04-12T04:29:04;96016.38;;;12.07;57.59
40992;BME280;29633;49.168;9.848;2023-04-12T04:31:30;96005.50;;;12.12;57.54
40992;BME280;29633;49.168;9.848;2023-04-12T04:34:01;96007.97;;;12.13;57.85
40992;BME280;29633;49.168;9.848;2023-04-12T04:36:28;96008.34;;;12.18;57.69
40992;BME280;29633;49.168;9.848;2023-04-12T04:38:55;96009.00;;;12.20;57.91
40992;BME280;29633;49.168;9.848;2023-04-12T04:41:22;95997.47;;;12.23;57.90
40992;BME280;29633;49.168;9.848;2023-04-12T04:43:49;96001.41;;;12.27;57.87
40992;BME280;29633;49.168;9.848;2023-04-12T04:46:15;96007.28;;;12.29;57.79
40992;BME280;29633;49.168;9.848;2023-04-12T04:48:42;96002.59;;;12.32;57.83
40992;BME280;29633;49.168;9.848;2023-04-12T04:51:07;95993.66;;;12.35;57.70
40992;BME280;29633;49.168;9.848;2023-04-12T04:53:33;95990.41;;;12.33;57.86
40992;BME280;29633;49.168;9.848;2023-04-12T04:55:59;95997.53;;;12.31;57.93
40992;BME280;29633;49.168;9.848;2023-04-12T04:58:26;95988.28;;;12.28;57.94
40992;BME280;29633;49.168;9.848;2023-04-12T05:00:55;95998.16;;;12.25;57.90
40992;BME280;29633;49.168;9.848;2023-04-12T05:03:21;95992.75;;;12.18;58.08
40992;BME280;29633;49.168;9.848;2023-04-12T05:05:48;95992.75;;;12.18;57.92
40992;BME280;29633;49.168;9.848;2023-04-12T05:08:14;95995.19;;;12.20;58.23
40992;BME280;29633;49.168;9.848;2023-04-12T05:10:42;95984.66;;;12.21;58.20
40992;BME280;29633;49.168;9.848;2023-04-12T05:13:08;95988.66;;;12.16;58.42
40992;BME280;29633;49.168;9.848;2023-04-12T05:15:34;95982.81;;;12.14;58.28
40992;BME280;29633;49.168;9.848;2023-04-12T05:18:00;95978.25;;;12.16;58.24
40992;BME280;29633;49.168;9.848;2023-04-12T05:20:26;95975.00;;;12.14;58.30
40992;BME280;29633;49.168;9.848;2023-04-12T05:22:52;95975.31;;;12.11;58.43
40992;BME280;29633;49.168;9.848;2023-04-12T05:25:17;95984.22;;;12.08;58.31
40992;BME280;29633;49.168;9.848;2023-04-12T05:27:45;95976.72;;;12.05;58.54
40992;BME280;29633;49.168;9.848;2023-04-12T05:30:11;95977.56;;;12.06;58.34
40992;BME280;29633;49.168;9.848;2023-04-12T05:32:37;95971.22;;;12.08;58.65
40992;BME280;29633;49.168;9.848;2023-04-12T05:35:03;95960.50;;;12.03;58.66
40992;BME280;29633;49.168;9.848;2023-04-12T05:37:29;95962.28;;;12.03;58.84
40992;BME280;29633;49.168;9.848;2023-04-12T05:39:54;95957.22;;;12.01;58.62
40992;BME280;29633;49.168;9.848;2023-04-12T05:42:20;95965.81;;;12.02;58.72
40992;BME280;29633;49.168;9.848;2023-04-12T05:44:46;95955.94;;;12.05;58.44
40992;BME280;29633;49.168;9.848;2023-04-12T05:47:13;95969.94;;;12.04;58.55
40992;BME280;29633;49.168;9.848;2023-04-12T05:49:38;95959.38;;;12.06;58.70
40992;BME280;29633;49.168;9.848;2023-04-12T05:52:04;95961.97;;;12.06;58.73
40992;BME280;29633;49.168;9.848;2023-04-12T05:54:30;95957.91;;;12.03;58.85
40992;BME280;29633;49.168;9.848;2023-04-12T05:56:56;95949.72;;;11.98;58.91
40992;BME280;29633;49.168;9.848;2023-04-12T05:59:21;95948.91;;;11.98;58.84
40992;BME280;29633;49.168;9.848;2023-04-12T06:01:47;95949.72;;;11.98;58.67
40992;BME280;29633;49.168;9.848;2023-04-12T06:04:13;95946.19;;;11.99;58.99
40992;BME280;29633;49.168;9.848;2023-04-12T06:06:39;95954.63;;;12.01;59.16
40992;BME280;29633;49.168;9.848;2023-04-12T06:09:04;95940.66;;;12.02;58.93
40992;BME280;29633;49.168;9.848;2023-04-12T06:11:30;95942.63;;;12.00;58.97
40992;BME280;29633;49.168;9.848;2023-04-12T06:14:01;95947.00;;;12.00;59.00
40992;BME280;29633;49.168;9.848;2023-04-12T06:16:28;95941.28;;;11.96;59.08
40992;BME280;29633;49.168;9.848;2023-04-12T06:18:54;95941.59;;;11.93;59.25
40992;BME280;29633;49.168;9.848;2023-04-12T06:21:19;95930.69;;;11.90;59.23
40992;BME280;29633;49.168;9.848;2023-04-12T06:23:45;95934.75;;;11.92;59.34
40992;BME280;29633;49.168;9.848;2023-04-12T06:26:11;95932.03;;;11.94;59.16
40992;BME280;29633;49.168;9.848;2023-04-12T06:28:36;95919.84;;;11.94;59.26
40992;BME280;29633;49.168;9.848;2023-04-12T06:31:02;95923.69;;;11.90;59.42
40992;BME280;29633;49.168;9.848;2023-04-12T06:33:28;95917.03;;;11.88;59.27
40992;BME280;29633;49.168;9.848;2023-04-12T06:35:54;95916.72;;;11.91;59.34
40992;BME280;29633;49.168;9.848;2023-04-12T06:38:20;95904.72;;;11.90;59.20
40992;BME280;29633;49.168;9.848;2023-04-12T06:40:46;95891.56;;;11.91;59.45
40992;BME280;29633;49.168;9.848;2023-04-12T06:43:11;95887.19;;;11.92;59.58
40992;BME280;29633;49.168;9.848;2023-04-12T06:45:37;95887.34;;;11.90;59.39
40992;BME280;29633;49.168;9.848;2023-04-12T06:48:03;95879.09;;;11.95;59.55
40992;BME280;29633;49.168;9.848;2023-04-12T06:50:28;95864.19;;;11.97;59.47
40992;BME280;29633;49.168;9.848;2023-04-12T06:52:54;95861.41;;;11.98;59.38
40992;BME280;29633;49.168;9.848;2023-04-12T06:55:20;95851.03;;;11.98;59.53
40992;BME280;29633;49.168;9.848;2023-04-12T06:57:45;95851.34;;;11.95;59.60
40992;BME280;29633;49.168;9.848;2023-04-12T07:00:12;95834.94;;;11.95;59.67
40992;BME280;29633;49.168;9.848;2023-04-12T07:02:40;95834.94;;;11.95;59.62
40992;BME280;29633;49.168;9.848;2023-04-12T07:05:05;95821.63;;;11.98;59.81
40992;BME280;29633;49.168;9.848;2023-04-12T07:07:31;95813.56;;;12.01;59.62
40992;BME280;29633;49.168;9.848;2023-04-12T07:09:57;95810.66;;;12.04;59.70
40992;BME280;29633;49.168;9.848;2023-04-12T07:12:24;95821.69;;;12.06;59.68
40992;BME280;29633;49.168;9.848;2023-04-12T07:14:50;95808.06;;;12.04;60.04
40992;BME280;29633;49.168;9.848;2023-04-12T07:17:16;95796.34;;;12.00;59.96
40992;BME280;29633;49.168;9.848;2023-04-12T07:19:41;95792.13;;;11.99;60.11
40992;BME280;29633;49.168;9.848;2023-04-12T07:22:08;95786.28;;;11.97;59.96
40992;BME280;29633;49.168;9.848;2023-04-12T07:24:34;95781.22;;;11.95;60.21
40992;BME280;29633;49.168;9.848;2023-04-12T07:26:59;95781.91;;;11.97;60.04
40992;BME280;29633;49.168;9.848;2023-04-12T07:29:27;95779.13;;;11.99;60.25
40992;BME280;29633;49.168;9.848;2023-04-12T07:31:53;95777.50;;;11.98;60.43
40992;BME280;29633;49.168;9.848;2023-04-12T07:34:19;95766.00;;;12.00;60.16
40992;BME280;29633;49.168;9.848;2023-04-12T07:36:45;95768.91;;;12.05;60.25
40992;BME280;29633;49.168;9.848;2023-04-12T07:39:10;95759.84;;;12.09;60.20
40992;BME280;29633;49.168;9.848;2023-04-12T07:41:39;95759.03;;;12.09;60.57
40992;BME280;29633;49.168;9.848;2023-04-12T07:44:06;95756.44;;;12.09;60.45
40992;BME280;29633;49.168;9.848;2023-04-12T07:46:32;95750.59;;;12.07;60.42
40992;BME280;29633;49.168;9.848;2023-04-12T07:48:57;95748.00;;;12.07;60.53
40992;BME280;29633;49.168;9.848;2023-04-12T07:51:23;95749.91;;;12.05;60.61
40992;BME280;29633;49.168;9.848;2023-04-12T07:53:49;95739.69;;;12.03;60.46
40992;BME280;29633;49.168;9.848;2023-04-12T07:56:16;95737.91;;;12.04;60.60
40992;BME280;29633;49.168;9.848;2023-04-12T07:58:41;95733.69;;;12.03;60.80
40992;BME280;29633;49.168;9.848;2023-04-12T08:01:07;95735.97;;;12.06;60.67
40992;BME280;29633;49.168;9.848;2023-04-12T08:03:32;95732.91;;;12.10;60.79
40992;BME280;29633;49.168;9.848;2023-04-12T08:05:58;95732.72;;;12.12;60.80
40992;BME280;29633;49.168;9.848;2023-04-12T08:08:24;95719.28;;;12.16;60.52
40992;BME280;29633;49.168;9.848;2023-04-12T08:10:50;95722.03;;;12.23;60.75
40992;BME280;29633;49.168;9.848;2023-04-12T08:13:16;95715.56;;;12.27;60.57
40992;BME280;29633;49.168;9.848;2023-04-12T08:15:42;95723.72;;;12.32;60.71
40992;BME280;29633;49.168;9.848;2023-04-12T08:18:08;95702.75;;;12.33;60.85
40992;BME280;29633;49.168;9.848;2023-04-12T08:20:34;95696.44;;;12.36;60.73
40992;BME280;29633;49.168;9.848;2023-04-12T08:23:00;95695.47;;;12.37;60.84
40992;BME280;29633;49.168;9.848;2023-04-12T08:25:26;95698.72;;;12.39;60.94
40992;BME280;29633;49.168;9.848;2023-04-12T08:27:52;95701.94;;;12.41;60.92
40992;BME280;29633;49.168;9.848;2023-04-12T08:30:17;95695.63;;;12.44;60.89
40992;BME280;29633;49.168;9.848;2023-04-12T08:32:43;95696.94;;;12.48;60.70
40992;BME280;29633;49.168;9.848;2023-04-12T08:35:09;95688.81;;;12.51;60.85
40992;BME280;29633;49.168;9.848;2023-04-12T08:37:35;95688.63;;;12.52;60.98
40992;BME280;29633;49.168;9.848;2023-04-12T08:40:03;95678.56;;;12.57;60.83
40992;BME280;29633;49.168;9.848;2023-04-12T08:42:31;95665.91;;;12.62;60.97
40992;BME280;29633;49.168;9.848;2023-04-12T08:44:57;95673.38;;;12.65;60.93
40992;BME280;29633;49.168;9.848;2023-04-12T08:47:22;95667.03;;;12.68;61.02
40992;BME280;29633;49.168;9.848;2023-04-12T08:49:48;95663.16;;;12.72;60.78
40992;BME280;29633;49.168;9.848;2023-04-12T08:52:14;95659.41;;;12.74;60.86
40992;BME280;29633;49.168;9.848;2023-04-12T08:54:40;95661.66;;;12.77;61.00
40992;BME280;29633;49.168;9.848;2023-04-12T08:57:07;95657.28;;;12.78;61.05
40992;BME280;29633;49.168;9.848;2023-04-12T08:59:36;95653.53;;;12.80;61.15
40992;BME280;29633;49.168;9.848;2023-04-12T09:02:03;95646.06;;;12.86;60.99
40992;BME280;29633;49.168;9.848;2023-04-12T09:04:28;95644.75;;;12.90;61.18
40992;BME280;29633;49.168;9.848;2023-04-12T09:06:55;95640.38;;;12.90;61.01
40992;BME280;29633;49.168;9.848;2023-04-12T09:12:09;95640.53;;;12.89;61.35
40992;BME280;29633;49.168;9.848;2023-04-12T09:14:36;95634.03;;;12.93;61.46
40992;BME280;29633;49.168;9.848;2023-04-12T09:17:03;95638.88;;;12.96;61.08
40992;BME280;29633;49.168;9.848;2023-04-12T09:19:33;95633.34;;;12.99;61.56
40992;BME280;29633;49.168;9.848;2023-04-12T09:21:59;95629.28;;;13.04;61.22
40992;BME280;29633;49.168;9.848;2023-04-12T09:24:26;95619.50;;;13.06;61.47
40992;BME280;29633;49.168;9.848;2023-04-12T09:27:02;95621.97;;;13.08;61.58
40992;BME280;29633;49.168;9.848;2023-04-12T09:29:28;95605.38;;;13.09;61.46
40992;BME280;29633;49.168;9.848;2023-04-12T09:32:00;95604.72;;;13.15;61.38
40992;BME280;29633;49.168;9.848;2023-04-12T09:34:27;95606.84;;;13.19;61.53
40992;BME280;29633;49.168;9.848;2023-04-12T09:36:53;95592.66;;;13.22;61.52
40992;BME280;29633;49.168;9.848;2023-04-12T09:39:18;95593.63;;;13.29;61.54
40992;BME280;29633;49.168;9.848;2023-04-12T09:41:44;95589.56;;;13.35;61.60
40992;BME280;29633;49.168;9.848;2023-04-12T09:44:26;95591.63;;;13.39;61.58
40992;BME280;29633;49.168;9.848;2023-04-12T09:46:52;95593.25;;;13.40;61.46
40992;BME280;29633;49.168;9.848;2023-04-12T09:49:18;95580.41;;;13.39;61.58
40992;BME280;29633;49.168;9.848;2023-04-12T09:51:43;95584.47;;;13.41;61.68
40992;BME280;29633;49.168;9.848;2023-04-12T09:54:15;95585.44;;;13.40;61.77
40992;BME280;29633;49.168;9.848;2023-04-12T09:56:41;95577.00;;;13.38;62.02
40992;BME280;29633;49.168;9.848;2023-04-12T09:59:08;95564.63;;;13.40;61.83
40992;BME280;29633;49.168;9.848;2023-04-12T10:01:39;95565.09;;;13.44;62.07
40992;BME280;29633;49.168;9.848;2023-04-12T10:04:06;95575.66;;;13.42;61.99
40992;BME280;29633;49.168;9.848;2023-04-12T10:06:33;95576.31;;;13.44;62.09
40992;BME280;29633;49.168;9.848;2023-04-12T10:08:59;95566.53;;;13.46;62.07
40992;BME280;29633;49.168;9.848;2023-04-12T10:11:28;95565.56;;;13.47;62.15
40992;BME280;29633;49.168;9.848;2023-04-12T10:13:57;95563.94;;;13.46;62.11
40992;BME280;29633;49.168;9.848;2023-04-12T10:16:23;95569.59;;;13.50;62.18
40992;BME280;29633;49.168;9.848;2023-04-12T10:18:50;95579.88;;;13.51;62.04
40992;BME280;29633;49.168;9.848;2023-04-12T10:21:16;95568.63;;;13.51;62.47
40992;BME280;29633;49.168;9.848;2023-04-12T10:23:44;95572.53;;;13.55;62.32
40992;BME280;29633;49.168;9.848;2023-04-12T10:26:09;95555.41;;;13.60;62.29
40992;BME280;29633;49.168;9.848;2023-04-12T10:28:35;95551.00;;;13.61;62.17
40992;BME280;29633;49.168;9.848;2023-04-12T10:31:29;95547.72;;;13.67;62.19
40992;BME280;29633;49.168;9.848;2023-04-12T10:33:55;95552.75;;;13.68;62.00
40992;BME280;29633;49.168;9.848;2023-04-12T10:39:15;95543.63;;;13.72;62.46
40992;BME280;29633;49.168;9.848;2023-04-12T10:44:37;95527.63;;;13.75;62.45
40992;BME280;29633;49.168;9.848;2023-04-12T10:47:03;95531.53;;;13.79;62.53
40992;BME280;29633;49.168;9.848;2023-04-12T10:49:29;95526.97;;;13.82;62.73
40992;BME280;29633;49.168;9.848;2023-04-12T10:54:33;95527.44;;;13.85;62.82
40992;BME280;29633;49.168;9.848;2023-04-12T10:57:05;95519.06;;;13.90;62.89
40992;BME280;29633;49.168;9.848;2023-04-12T11:02:20;95524.88;;;14.00;62.98
40992;BME280;29633;49.168;9.848;2023-04-12T11:05:08;95513.28;;;14.02;62.90
40992;BME280;29633;49.168;9.848;2023-04-12T11:07:38;95520.59;;;14.07;63.07
40992;BME280;29633;49.168;9.848;2023-04-12T11:10:12;95520.03;;;14.11;62.82
40992;BME280;29633;49.168;9.848;2023-04-12T11:12:39;95516.09;;;14.15;63.00
40992;BME280;29633;49.168;9.848;2023-04-12T11:15:05;95513.97;;;14.19;63.26
40992;BME280;29633;49.168;9.848;2023-04-12T11:17:32;95511.34;;;14.19;63.32
40992;BME280;29633;49.168;9.848;2023-04-12T11:19:59;95508.13;;;14.17;63.33
40992;BME280;29633;49.168;9.848;2023-04-12T11:22:27;95496.88;;;14.16;63.29
40992;BME280;29633;49.168;9.848;2023-04-12T11:24:58;95495.09;;;14.17;63.38
40992;BME280;29633;49.168;9.848;2023-04-12T11:27:25;95493.09;;;14.19;63.50
40992;BME280;29633;49.168;9.848;2023-04-12T11:29:56;95482.16;;;14.23;63.38
40992;BME280;29633;49.168;9.848;2023-04-12T11:32:24;95479.03;;;14.28;63.54
40992;BME280;29633;49.168;9.848;2023-04-12T11:34:52;95472.81;;;14.29;63.63
40992;BME280;29633;49.168;9.848;2023-04-12T11:37:19;95480.31;;;14.32;63.67
40992;BME280;29633;49.168;9.848;2023-04-12T11:39:45;95467.91;;;14.34;63.72
40992;BME280;29633;49.168;9.848;2023-04-12T11:42:16;95475.00;;;14.40;63.69
40992;BME280;29633;49.168;9.848;2023-04-12T11:44:43;95458.22;;;14.43;63.74
40992;BME280;29633;49.168;9.848;2023-04-12T11:47:19;95464.50;;;14.48;63.87
40992;BME280;29633;49.168;9.848;2023-04-12T11:49:52;95458.56;;;14.54;63.68
40992;BME280;29633;49.168;9.848;2023-04-12T11:52:19;95455.25;;;14.60;63.87
40992;BME280;29633;49.168;9.848;2023-04-12T11:54:46;95461.75;;;14.64;63.93
40992;BME280;29633;49.168;9.848;2023-04-12T11:57:14;95444.09;;;14.66;63.87
40992;BME280;29633;49.168;9.848;2023-04-12T11:59:42;95452.38;;;14.70;63.90
40992;BME280;29633;49.168;9.848;2023-04-12T12:02:08;95447.34;;;14.68;64.05
40992;BME280;29633;49.168;9.848;2023-04-12T12:04:34;95452.56;;;14.68;64.01
40992;BME280;29633;49.168;9.848;2023-04-12T12:07:00;95452.22;;;14.71;64.05
40992;BME280;29633;49.168;9.848;2023-04-12T12:09:25;95438.97;;;14.73;64.16
40992;BME280;29633;49.168;9.848;2023-04-12T12:11:52;95436.19;;;14.74;63.90
40992;BME280;29633;49.168;9.848;2023-04-12T12:14:19;95453.28;;;14.77;64.07
40992;BME280;29633;49.168;9.848;2023-04-12T12:16:56;95436.25;;;14.81;64.17
40992;BME280;29633;49.168;9.848;2023-04-12T12:19:29;95433.56;;;14.89;64.01
40992;BME280;29633;49.168;9.848;2023-04-12T12:22:17;95442.53;;;15.01;64.01
40992;BME280;29633;49.168;9.848;2023-04-12T12:24:48;95440.25;;;15.13;63.98
40992;BME280;29633;49.168;9.848;2023-04-12T12:27:22;95431.94;;;15.24;63.77
40992;BME280;29633;49.168;9.848;2023-04-12T12:29:52;95421.47;;;15.39;63.91
40992;BME280;29633;49.168;9.848;2023-04-12T12:32:19;95419.47;;;15.55;63.94
40992;BME280;29633;49.168;9.848;2023-04-12T12:34:51;95420.44;;;15.75;64.00
40992;BME280;29633;49.168;9.848;2023-04-12T12:37:28;95420.31;;;15.84;64.17
40992;BME280;29633;49.168;9.848;2023-04-12T12:40:10;95408.13;;;15.91;64.07
40992;BME280;29633;49.168;9.848;2023-04-12T12:42:54;95417.00;;;15.96;63.93
40992;BME280;29633;49.168;9.848;2023-04-12T12:45:21;95404.34;;;16.00;64.40
40992;BME280;29633;49.168;9.848;2023-04-12T12:48:01;95413.81;;;16.01;64.13
40992;BME280;29633;49.168;9.848;2023-04-12T12:50:29;95406.53;;;15.96;64.40
40992;BME280;29633;49.168;9.848;2023-04-12T12:52:55;95403.50;;;15.93;64.30
40992;BME280;29633;49.168;9.848;2023-04-12T12:55:22;95390.22;;;15.88;64.30
40992;BME280;29633;49.168;9.848;2023-04-12T12:57:52;95397.22;;;15.87;64.56
40992;BME280;29633;49.168;9.848;2023-04-12T13:00:20;95386.34;;;15.84;64.43
40992;BME280;29633;49.168;9.848;2023-04-12T13:02:46;95387.94;;;15.85;64.54
40992;BME280;29633;49.168;9.848;2023-04-12T13:05:12;95385.97;;;15.87;64.59
40992;BME280;29633;49.168;9.848;2023-04-12T13:07:38;95403.06;;;15.89;64.47
40992;BME280;29633;49.168;9.848;2023-04-12T13:10:04;95387.81;;;15.93;64.27
40992;BME280;29633;49.168;9.848;2023-04-12T13:12:30;95383.22;;;15.95;64.49
40992;BME280;29633;49.168;9.848;2023-04-12T13:14:56;95382.84;;;15.98;64.29
40992;BME280;29633;49.168;9.848;2023-04-12T13:17:22;95386.06;;;16.00;64.24
40992;BME280;29633;49.168;9.848;2023-04-12T13:19:47;95377.47;;;16.06;64.21
40992;BME280;29633;49.168;9.848;2023-04-12T13:22:14;95378.06;;;16.08;64.12
40992;BME280;29633;49.168;9.848;2023-04-12T13:24:41;95378.13;;;16.14;64.33
40992;BME280;29633;49.168;9.848;2023-04-12T13:27:07;95365.84;;;16.15;64.25